createdAt,value
2023-01-25T00:00:00.705Z,12.80
2023-01-25T00:05:03.498Z,17.40
2023-01-25T00:10:08.562Z,17.20
2023-01-25T00:15:12.294Z,14.60
2023-01-25T00:20:15.238Z,13.80
2023-01-25T00:25:19.589Z,13.40
2023-01-25T00:30:22.371Z,14.00
2023-01-25T00:35:25.335Z,13.60
2023-01-25T00:40:29.503Z,13.00
2023-01-25T00:45:32.293Z,12.40
2023-01-25T00:50:35.743Z,14.00
2023-01-25T00:55:39.915Z,14.60
2023-01-25T01:00:42.877Z,13.20
2023-01-25T01:05:45.867Z,15.00
2023-01-25T01:10:50.050Z,13.80
2023-01-25T01:15:54.337Z,13.00
2023-01-25T01:20:57.192Z,12.80
2023-01-25T01:26:02.058Z,13.00
2023-01-25T01:31:05.479Z,13.00
2023-01-25T01:36:13.057Z,12.80
2023-01-25T01:41:17.400Z,13.00
2023-01-25T01:46:23.533Z,10.80
2023-01-25T01:51:31.076Z,13.00
2023-01-25T01:56:37.202Z,13.60
2023-01-25T02:01:40.495Z,14.00
2023-01-25T02:06:46.771Z,11.20
2023-01-25T02:11:53.143Z,10.80
2023-01-25T02:16:55.946Z,13.80
2023-01-25T02:21:58.805Z,13.00
2023-01-25T02:27:02.992Z,12.60
2023-01-25T02:32:06.734Z,10.00
2023-01-25T02:37:10.438Z,10.80
2023-01-25T02:42:14.684Z,12.40
2023-01-25T02:47:17.755Z,10.40
2023-01-25T02:52:20.795Z,12.40
2023-01-25T02:57:24.955Z,10.00
2023-01-25T03:02:28.194Z,10.40
2023-01-25T03:07:31.047Z,12.40
2023-01-25T03:12:36.068Z,13.20
2023-01-25T03:17:38.987Z,10.20
2023-01-25T03:22:41.889Z,10.20
2023-01-25T03:27:46.679Z,10.20
2023-01-25T03:32:50.688Z,10.00
2023-01-25T03:37:55.662Z,10.00
2023-01-25T03:43:00.533Z,9.20
2023-01-25T03:48:03.456Z,10.00
2023-01-25T03:53:10.218Z,10.20
2023-01-25T03:58:14.449Z,10.80
2023-01-25T04:03:19.584Z,8.60
2023-01-25T04:08:22.611Z,12.20
2023-01-25T04:13:27.199Z,10.00
2023-01-25T04:18:30.034Z,10.00
2023-01-25T04:23:33.105Z,8.60
2023-01-25T04:28:37.422Z,10.00
2023-01-25T04:33:40.392Z,10.60
2023-01-25T04:38:44.686Z,10.40
2023-01-25T04:43:49.275Z,9.20
2023-01-25T04:48:52.473Z,10.60
2023-01-25T04:53:55.354Z,9.00
2023-01-25T04:59:00.273Z,11.00
2023-01-25T05:04:04.053Z,10.00
2023-01-25T05:09:20.912Z,10.00
2023-01-25T05:14:25.910Z,8.40
2023-01-25T05:19:28.860Z,9.00
2023-01-25T05:24:36.515Z,10.00
2023-01-25T05:29:44.879Z,9.00
2023-01-25T05:34:48.159Z,9.00
2023-01-25T05:39:51.692Z,9.00
2023-01-25T05:44:56.833Z,8.00
2023-01-25T05:50:00.358Z,9.00
2023-01-25T05:55:16.188Z,8.80
2023-01-25T06:00:22.107Z,10.00
2023-01-25T06:05:24.965Z,8.00
2023-01-25T06:10:27.907Z,9.00
2023-01-25T06:15:32.489Z,8.40
2023-01-25T06:21:13.855Z,8.00
2023-01-25T06:26:17.606Z,8.60
2023-01-25T06:31:21.847Z,9.00
2023-01-25T06:36:24.619Z,8.60
2023-01-25T06:41:27.638Z,8.00
2023-01-25T06:46:32.807Z,9.00
2023-01-25T06:51:35.699Z,8.60
2023-01-25T06:56:38.490Z,8.80
2023-01-25T07:01:43.098Z,8.00
2023-01-25T07:06:45.858Z,8.80
2023-01-25T07:11:48.776Z,9.20
2023-01-25T07:16:53.002Z,7.80
2023-01-25T07:21:55.784Z,7.20
2023-01-25T07:26:58.567Z,6.00
2023-01-25T07:32:02.811Z,8.20
2023-01-25T07:37:06.387Z,7.20
2023-01-25T07:42:09.455Z,8.00
2023-01-25T07:47:14.016Z,8.80
2023-01-25T07:52:16.878Z,8.40
2023-01-25T07:57:20.358Z,9.00
2023-01-25T08:02:24.552Z,8.60
2023-01-25T08:07:29.266Z,7.20
2023-01-25T08:12:32.549Z,6.00
2023-01-25T08:17:37.549Z,5.80
2023-01-25T08:22:40.351Z,9.00
2023-01-25T08:27:43.709Z,8.80
2023-01-25T08:32:47.847Z,8.00
2023-01-25T08:37:50.612Z,8.20
2023-01-25T08:42:53.458Z,8.00
2023-01-25T08:47:57.737Z,6.80
2023-01-25T08:53:00.677Z,5.20
2023-01-25T08:58:03.666Z,7.80
2023-01-25T09:03:07.856Z,7.40
2023-01-25T09:08:11.126Z,8.80
2023-01-25T09:13:14.419Z,8.00
2023-01-25T09:18:18.735Z,8.00
2023-01-25T09:23:23.815Z,6.80
2023-01-25T09:28:26.784Z,7.00
2023-01-25T09:33:32.531Z,22.00
2023-01-25T09:38:35.379Z,23.80
2023-01-25T09:43:46.940Z,25.60
2023-01-25T09:49:06.784Z,24.60
2023-01-25T09:54:10.510Z,20.20
2023-01-25T09:59:17.181Z,16.40
2023-01-25T10:04:23.643Z,15.60
2023-01-25T10:09:32.810Z,13.40
2023-01-25T10:14:35.727Z,17.00
2023-01-25T10:19:45.791Z,14.00
2023-01-25T10:25:07.429Z,14.80
2023-01-25T10:30:21.622Z,14.00
2023-01-25T10:35:35.331Z,15.20
2023-01-25T10:40:42.088Z,13.00
2023-01-25T10:45:45.417Z,12.00
2023-01-25T10:50:54.097Z,11.80
2023-01-25T10:56:02.205Z,11.80
2023-01-25T11:01:06.949Z,13.00
2023-01-25T11:06:11.218Z,12.00
2023-01-25T11:11:26.204Z,12.00
2023-01-25T11:16:33.999Z,10.20
2023-01-25T11:21:38.155Z,11.20
2023-01-25T11:26:41.659Z,9.00
2023-01-25T11:31:46.502Z,11.00
2023-01-25T11:37:04.485Z,11.20
2023-01-25T11:42:13.371Z,11.00
2023-01-25T11:47:23.335Z,11.60
2023-01-25T11:52:31.843Z,11.00
2023-01-25T11:57:43.803Z,8.80
2023-01-25T12:02:57.389Z,10.40
2023-01-25T12:08:06.620Z,10.20
2023-01-25T12:13:12.523Z,9.60
2023-01-25T12:18:46.389Z,9.20
2023-01-25T12:23:58.725Z,9.00
2023-01-25T12:29:05.457Z,9.00
2023-01-25T12:34:11.567Z,10.80
2023-01-25T12:39:18.633Z,8.00
2023-01-25T12:44:22.980Z,8.00
2023-01-25T12:49:29.490Z,8.80
2023-01-25T12:54:35.604Z,8.60
2023-01-25T12:59:43.228Z,8.00
2023-01-25T13:04:54.428Z,9.20
2023-01-25T13:10:00.572Z,9.00
2023-01-25T13:15:03.365Z,9.20
2023-01-25T13:20:32.658Z,22.20
2023-01-25T13:25:36.915Z,38.00
2023-01-25T13:30:39.715Z,23.00
2023-01-25T13:35:44.357Z,26.00
2023-01-25T13:40:48.953Z,25.00
2023-01-25T13:45:52.248Z,27.00
2023-01-25T13:50:55.965Z,26.40
2023-01-25T13:56:00.366Z,24.60
2023-01-25T14:01:06.468Z,28.40
2023-01-25T14:06:16.765Z,32.25
2023-01-25T14:11:21.634Z,29.75
2023-01-25T14:16:24.515Z,30.50
2023-01-25T14:21:27.533Z,29.20
2023-01-25T14:26:31.770Z,30.00
2023-01-25T14:31:37.213Z,28.80
2023-01-25T14:36:40.193Z,27.00
2023-01-25T14:41:59.759Z,27.20
2023-01-25T14:47:23.657Z,26.80
2023-01-25T14:52:27.381Z,24.00
2023-01-25T14:57:40.581Z,25.75
2023-01-25T15:02:46.201Z,27.20
2023-01-25T15:07:50.166Z,25.00
2023-01-25T15:13:11.591Z,23.60
2023-01-25T15:18:45.661Z,25.40
2023-01-25T15:23:49.109Z,24.80
2023-01-25T15:28:53.983Z,24.00
2023-01-25T15:33:57.153Z,24.00
2023-01-25T15:39:00.006Z,24.80
2023-01-25T15:44:04.383Z,24.00
2023-01-25T15:49:07.573Z,23.00
2023-01-25T15:54:10.370Z,22.80
2023-01-25T15:59:17.360Z,23.60
2023-01-25T16:04:20.195Z,23.80
2023-01-25T16:09:24.255Z,21.80
2023-01-25T16:14:30.138Z,24.60
2023-01-25T16:19:34.668Z,21.60
2023-01-25T16:24:39.516Z,24.00
2023-01-25T16:29:43.875Z,22.20
2023-01-25T16:34:46.662Z,23.00
2023-01-25T16:39:49.573Z,21.80
2023-01-25T16:44:53.827Z,23.60
2023-01-25T16:49:56.772Z,22.60
2023-01-25T16:54:59.818Z,22.60
2023-01-25T17:00:05.250Z,19.40
2023-01-25T17:05:08.689Z,23.80
2023-01-25T17:10:12.378Z,23.00
2023-01-25T17:15:19.789Z,25.80
2023-01-25T17:20:22.567Z,24.20
2023-01-25T17:25:26.192Z,24.60
2023-01-25T17:30:30.488Z,23.00
2023-01-25T17:35:36.141Z,20.20
2023-01-25T17:40:38.999Z,22.60
2023-01-25T17:45:43.226Z,22.60
2023-01-25T17:50:45.993Z,22.80
2023-01-25T17:55:48.808Z,25.40
2023-01-25T18:00:59.343Z,25.00
2023-01-25T18:06:09.390Z,20.20
2023-01-25T18:11:15.260Z,22.40
2023-01-25T18:16:21.492Z,23.60
2023-01-25T18:21:25.484Z,22.60
2023-01-25T18:26:29.157Z,23.40
2023-01-25T18:31:33.546Z,20.40
2023-01-25T18:36:36.542Z,21.20
2023-01-25T18:41:39.360Z,22.00
2023-01-25T18:46:45.497Z,20.20
2023-01-25T18:52:05.211Z,22.00
2023-01-25T18:57:12.108Z,22.00
2023-01-25T19:02:17.398Z,19.40
2023-01-25T19:07:20.194Z,19.60
2023-01-25T19:12:23.228Z,19.60
2023-01-25T19:17:27.366Z,19.00
2023-01-25T19:22:30.207Z,20.00
2023-01-25T19:27:33.027Z,18.80
2023-01-25T19:32:37.149Z,21.00
2023-01-25T19:37:39.985Z,19.40
2023-01-25T19:42:42.965Z,22.00
2023-01-25T19:47:47.273Z,19.00
2023-01-25T19:52:50.111Z,16.40
2023-01-25T19:57:52.849Z,19.20
2023-01-25T20:03:07.317Z,17.80
2023-01-25T20:08:17.894Z,16.60
2023-01-25T20:13:20.650Z,17.40
2023-01-25T20:18:24.862Z,15.60
2023-01-25T20:23:27.695Z,15.60
2023-01-25T20:28:30.513Z,18.60
2023-01-25T20:33:34.745Z,19.00
2023-01-25T20:38:37.736Z,17.60
2023-01-25T20:43:40.667Z,18.40
2023-01-25T20:48:44.854Z,15.60
2023-01-25T20:53:47.703Z,16.00
2023-01-25T20:58:51.204Z,18.40
2023-01-25T21:03:56.817Z,16.00
2023-01-25T21:08:59.875Z,14.60
2023-01-25T21:14:02.749Z,14.80
2023-01-25T21:19:07.324Z,18.00
2023-01-25T21:24:11.781Z,12.40
2023-01-25T21:29:14.831Z,13.00
2023-01-25T21:34:19.091Z,15.00
2023-01-25T21:39:21.879Z,14.60
2023-01-25T21:44:42.255Z,15.40
2023-01-25T21:50:03.797Z,15.60
2023-01-25T21:55:07.639Z,15.20
2023-01-25T22:00:12.301Z,14.80
2023-01-25T22:05:16.774Z,14.80
2023-01-25T22:10:19.803Z,12.60
2023-01-25T22:15:22.751Z,12.60
2023-01-25T22:20:26.911Z,12.80
2023-01-25T22:25:29.638Z,15.20
2023-01-25T22:30:32.502Z,14.60
2023-01-25T22:35:36.638Z,14.00
2023-01-25T22:40:39.444Z,14.00
2023-01-25T22:45:50.121Z,13.20
2023-01-25T22:50:54.213Z,13.00
2023-01-25T22:56:01.618Z,13.40
2023-01-25T23:01:04.606Z,13.00
2023-01-25T23:06:10.026Z,11.80
2023-01-25T23:11:13.531Z,14.00
2023-01-25T23:16:16.402Z,13.40
2023-01-25T23:21:21.329Z,11.80
2023-01-25T23:26:24.171Z,13.00
2023-01-25T23:31:27.291Z,13.60
2023-01-25T23:36:32.219Z,10.00
2023-01-25T23:41:35.041Z,13.00
2023-01-25T23:46:37.947Z,12.40
2023-01-25T23:51:42.045Z,13.20
2023-01-25T23:56:44.818Z,11.00
